sensor_id;sensor_type;location;lat;lon;timestamp;temperature;humidity
65291;SHT30;51893;59.754;10.110;2023-12-20T00:01:44;-1.51;81.21
65291;SHT30;51893;59.754;10.110;2023-12-20T00:04:13;-1.45;81.16
65291;SHT30;51893;59.754;10.110;2023-12-20T00:06:41;-1.45;81.18
65291;SHT30;51893;59.754;10.110;2023-12-20T00:09:11;-1.38;81.29
65291;SHT30;51893;59.754;10.110;2023-12-20T00:11:40;-1.41;81.19
65291;SHT30;51893;59.754;10.110;2023-12-20T00:14:09;-1.47;81.12
65291;SHT30;51893;59.754;10.110;2023-12-20T00:16:37;-1.47;81.31
65291;SHT30;51893;59.754;10.110;2023-12-20T00:19:05;-1.46;81.34
65291;SHT30;51893;59.754;10.110;2023-12-20T00:21:34;-1.47;81.31
65291;SHT30;51893;59.754;10.110;2023-12-20T00:24:05;-1.49;81.26
65291;SHT30;51893;59.754;10.110;2023-12-20T00:26:34;-1.47;81.25
65291;SHT30;51893;59.754;10.110;2023-12-20T00:29:02;-1.43;81.22
65291;SHT30;51893;59.754;10.110;2023-12-20T00:31:30;-1.39;81.06
65291;SHT30;51893;59.754;10.110;2023-12-20T00:34:00;-1.43;81.24
65291;SHT30;51893;59.754;10.110;2023-12-20T00:36:28;-1.42;81.68
65291;SHT30;51893;59.754;10.110;2023-12-20T00:38:56;-1.41;81.78
65291;SHT30;51893;59.754;10.110;2023-12-20T00:41:25;-1.41;81.89
65291;SHT30;51893;59.754;10.110;2023-12-20T00:43:53;-1.48;81.78
65291;SHT30;51893;59.754;10.110;2023-12-20T00:46:22;-1.56;81.70
65291;SHT30;51893;59.754;10.110;2023-12-20T00:48:50;-1.53;81.63
65291;SHT30;51893;59.754;10.110;2023-12-20T00:51:18;-1.58;81.32
65291;SHT30;51893;59.754;10.110;2023-12-20T00:53:46;-1.67;81.42
65291;SHT30;51893;59.754;10.110;2023-12-20T00:56:17;-1.67;81.72
65291;SHT30;51893;59.754;10.110;2023-12-20T00:58:45;-1.60;82.01
65291;SHT30;51893;59.754;10.110;2023-12-20T01:01:13;-1.54;82.03
65291;SHT30;51893;59.754;10.110;2023-12-20T01:03:41;-1.56;81.95
65291;SHT30;51893;59.754;10.110;2023-12-20T01:06:11;-1.58;81.81
65291;SHT30;51893;59.754;10.110;2023-12-20T01:08:39;-1.53;81.76
65291;SHT30;51893;59.754;10.110;2023-12-20T01:11:07;-1.48;81.71
65291;SHT30;51893;59.754;10.110;2023-12-20T01:13:36;-1.41;81.58
65291;SHT30;51893;59.754;10.110;2023-12-20T01:16:05;-1.46;81.35
65291;SHT30;51893;59.754;10.110;2023-12-20T01:18:34;-1.48;81.42
65291;SHT30;51893;59.754;10.110;2023-12-20T01:21:04;-1.40;81.39
65291;SHT30;51893;59.754;10.110;2023-12-20T01:23:33;-1.34;81.27
65291;SHT30;51893;59.754;10.110;2023-12-20T01:26:01;-1.29;81.11
65291;SHT30;51893;59.754;10.110;2023-12-20T01:28:30;-1.28;80.94
65291;SHT30;51893;59.754;10.110;2023-12-20T01:30:58;-1.29;80.98
65291;SHT30;51893;59.754;10.110;2023-12-20T01:33:26;-1.27;81.03
65291;SHT30;51893;59.754;10.110;2023-12-20T01:35:54;-1.17;80.96
65291;SHT30;51893;59.754;10.110;2023-12-20T01:38:23;-1.17;80.76
65291;SHT30;51893;59.754;10.110;2023-12-20T01:40:51;-1.24;80.79
65291;SHT30;51893;59.754;10.110;2023-12-20T01:43:19;-1.20;80.96
65291;SHT30;51893;59.754;10.110;2023-12-20T01:45:47;-1.12;80.97
65291;SHT30;51893;59.754;10.110;2023-12-20T01:48:16;-1.07;80.97
65291;SHT30;51893;59.754;10.110;2023-12-20T01:50:45;-1.02;80.89
65291;SHT30;51893;59.754;10.110;2023-12-20T01:53:13;-1.05;80.71
65291;SHT30;51893;59.754;10.110;2023-12-20T01:55:43;-1.12;80.95
65291;SHT30;51893;59.754;10.110;2023-12-20T01:58:12;-1.14;81.29
65291;SHT30;51893;59.754;10.110;2023-12-20T02:00:42;-1.18;81.73
65291;SHT30;51893;59.754;10.110;2023-12-20T02:03:11;-1.19;81.79
65291;SHT30;51893;59.754;10.110;2023-12-20T02:05:40;-1.18;82.14
65291;SHT30;51893;59.754;10.110;2023-12-20T02:08:09;-1.19;82.35
65291;SHT30;51893;59.754;10.110;2023-12-20T02:10:37;-1.17;82.45
65291;SHT30;51893;59.754;10.110;2023-12-20T02:13:08;-1.15;82.49
65291;SHT30;51893;59.754;10.110;2023-12-20T02:15:37;-1.10;82.51
65291;SHT30;51893;59.754;10.110;2023-12-20T02:18:05;-1.02;82.33
65291;SHT30;51893;59.754;10.110;2023-12-20T02:20:33;-0.98;82.14
65291;SHT30;51893;59.754;10.110;2023-12-20T02:23:01;-0.91;81.96
65291;SHT30;51893;59.754;10.110;2023-12-20T02:25:30;-0.88;81.76
65291;SHT30;51893;59.754;10.110;2023-12-20T02:27:58;-0.86;81.62
65291;SHT30;51893;59.754;10.110;2023-12-20T02:30:26;-0.89;81.57
65291;SHT30;51893;59.754;10.110;2023-12-20T02:32:57;-0.90;81.60
65291;SHT30;51893;59.754;10.110;2023-12-20T02:35:29;-0.96;81.50
65291;SHT30;51893;59.754;10.110;2023-12-20T02:37:57;-1.03;81.65
65291;SHT30;51893;59.754;10.110;2023-12-20T02:40:25;-1.08;81.87
65291;SHT30;51893;59.754;10.110;2023-12-20T02:42:54;-1.09;82.07
65291;SHT30;51893;59.754;10.110;2023-12-20T02:45:23;-1.04;82.04
65291;SHT30;51893;59.754;10.110;2023-12-20T02:47:52;-0.95;82.00
65291;SHT30;51893;59.754;10.110;2023-12-20T02:50:20;-0.89;81.92
65291;SHT30;51893;59.754;10.110;2023-12-20T02:52:48;-0.88;81.76
65291;SHT30;51893;59.754;10.110;2023-12-20T02:55:16;-0.97;81.71
65291;SHT30;51893;59.754;10.110;2023-12-20T02:57:44;-0.96;81.93
65291;SHT30;51893;59.754;10.110;2023-12-20T03:00:13;-0.84;81.81
65291;SHT30;51893;59.754;10.110;2023-12-20T03:02:42;-0.82;81.55
65291;SHT30;51893;59.754;10.110;2023-12-20T03:05:10;-0.82;81.39
65291;SHT30;51893;59.754;10.110;2023-12-20T03:07:38;-0.96;81.36
65291;SHT30;51893;59.754;10.110;2023-12-20T03:10:07;-1.01;81.65
65291;SHT30;51893;59.754;10.110;2023-12-20T03:12:49;-0.97;81.92
65291;SHT30;51893;59.754;10.110;2023-12-20T03:15:17;-0.97;82.13
65291;SHT30;51893;59.754;10.110;2023-12-20T03:17:46;-0.94;82.34
65291;SHT30;51893;59.754;10.110;2023-12-20T03:20:15;-0.90;82.48
65291;SHT30;51893;59.754;10.110;2023-12-20T03:22:42;-0.82;82.60
65291;SHT30;51893;59.754;10.110;2023-12-20T03:25:10;-0.69;82.56
65291;SHT30;51893;59.754;10.110;2023-12-20T03:27:40;-0.59;82.29
65291;SHT30;51893;59.754;10.110;2023-12-20T03:30:09;-0.57;82.10
65291;SHT30;51893;59.754;10.110;2023-12-20T03:32:38;-0.47;81.95
65291;SHT30;51893;59.754;10.110;2023-12-20T03:35:06;-0.50;81.71
65291;SHT30;51893;59.754;10.110;2023-12-20T03:37:35;-0.59;81.79
65291;SHT30;51893;59.754;10.110;2023-12-20T03:40:04;-0.59;81.80
65291;SHT30;51893;59.754;10.110;2023-12-20T03:42:33;-0.56;81.80
65291;SHT30;51893;59.754;10.110;2023-12-20T03:45:01;-0.55;81.73
65291;SHT30;51893;59.754;10.110;2023-12-20T03:47:29;-0.55;81.63
65291;SHT30;51893;59.754;10.110;2023-12-20T03:49:56;-0.57;81.61
65291;SHT30;51893;59.754;10.110;2023-12-20T03:52:24;-0.58;81.63
65291;SHT30;51893;59.754;10.110;2023-12-20T03:54:52;-0.61;81.74
65291;SHT30;51893;59.754;10.110;2023-12-20T03:57:20;-0.59;81.65
65291;SHT30;51893;59.754;10.110;2023-12-20T03:59:48;-0.56;81.63
65291;SHT30;51893;59.754;10.110;2023-12-20T04:02:18;-0.43;81.52
65291;SHT30;51893;59.754;10.110;2023-12-20T04:04:46;-0.45;81.32
65291;SHT30;51893;59.754;10.110;2023-12-20T04:07:14;-0.52;81.23
65291;SHT30;51893;59.754;10.110;2023-12-20T04:09:42;-0.58;81.42
65291;SHT30;51893;59.754;10.110;2023-12-20T04:12:10;-0.64;81.67
65291;SHT30;51893;59.754;10.110;2023-12-20T04:14:39;-0.70;82.00
65291;SHT30;51893;59.754;10.110;2023-12-20T04:17:07;-0.65;82.07
65291;SHT30;51893;59.754;10.110;2023-12-20T04:19:35;-0.61;81.84
65291;SHT30;51893;59.754;10.110;2023-12-20T04:22:03;-0.64;81.70
65291;SHT30;51893;59.754;10.110;2023-12-20T04:24:31;-0.61;81.72
65291;SHT30;51893;59.754;10.110;2023-12-20T04:26:59;-0.56;81.63
65291;SHT30;51893;59.754;10.110;2023-12-20T04:29:27;-0.59;81.60
65291;SHT30;51893;59.754;10.110;2023-12-20T04:31:55;-0.62;81.68
65291;SHT30;51893;59.754;10.110;2023-12-20T04:34:23;-0.68;81.48
65291;SHT30;51893;59.754;10.110;2023-12-20T04:36:52;-0.69;81.40
65291;SHT30;51893;59.754;10.110;2023-12-20T04:39:21;-0.75;81.43
65291;SHT30;51893;59.754;10.110;2023-12-20T04:41:49;-0.73;81.60
65291;SHT30;51893;59.754;10.110;2023-12-20T04:44:17;-0.68;81.55
65291;SHT30;51893;59.754;10.110;2023-12-20T04:46:46;-0.66;81.47
65291;SHT30;51893;59.754;10.110;2023-12-20T04:49:14;-0.72;81.45
65291;SHT30;51893;59.754;10.110;2023-12-20T04:51:42;-0.74;81.51
65291;SHT30;51893;59.754;10.110;2023-12-20T04:54:11;-0.74;81.50
65291;SHT30;51893;59.754;10.110;2023-12-20T04:56:41;-0.70;81.40
65291;SHT30;51893;59.754;10.110;2023-12-20T04:59:11;-0.68;81.23
65291;SHT30;51893;59.754;10.110;2023-12-20T05:01:39;-0.70;81.23
65291;SHT30;51893;59.754;10.110;2023-12-20T05:04:07;-0.66;81.17
65291;SHT30;51893;59.754;10.110;2023-12-20T05:06:35;-0.69;81.15
65291;SHT30;51893;59.754;10.110;2023-12-20T05:09:03;-0.67;81.19
65291;SHT30;51893;59.754;10.110;2023-12-20T05:11:31;-0.66;81.12
65291;SHT30;51893;59.754;10.110;2023-12-20T05:14:00;-0.66;81.14
65291;SHT30;51893;59.754;10.110;2023-12-20T05:16:28;-0.67;81.06
65291;SHT30;51893;59.754;10.110;2023-12-20T05:18:56;-0.77;81.09
65291;SHT30;51893;59.754;10.110;2023-12-20T05:21:27;-0.79;81.39
65291;SHT30;51893;59.754;10.110;2023-12-20T05:23:55;-0.78;81.44
65291;SHT30;51893;59.754;10.110;2023-12-20T05:26:22;-0.73;81.50
65291;SHT30;51893;59.754;10.110;2023-12-20T05:28:51;-0.68;81.42
65291;SHT30;51893;59.754;10.110;2023-12-20T05:31:20;-0.67;81.30
65291;SHT30;51893;59.754;10.110;2023-12-20T05:33:50;-0.66;81.29
65291;SHT30;51893;59.754;10.110;2023-12-20T05:36:18;-0.69;81.26
65291;SHT30;51893;59.754;10.110;2023-12-20T05:38:49;-0.69;81.40
65291;SHT30;51893;59.754;10.110;2023-12-20T05:41:17;-0.71;81.37
65291;SHT30;51893;59.754;10.110;2023-12-20T05:43:45;-0.74;81.43
65291;SHT30;51893;59.754;10.110;2023-12-20T05:46:13;-0.76;81.46
65291;SHT30;51893;59.754;10.110;2023-12-20T05:48:40;-0.80;81.62
65291;SHT30;51893;59.754;10.110;2023-12-20T05:51:11;-0.81;81.79
65291;SHT30;51893;59.754;10.110;2023-12-20T05:53:40;-0.81;81.86
65291;SHT30;51893;59.754;10.110;2023-12-20T05:56:08;-0.80;81.92
65291;SHT30;51893;59.754;10.110;2023-12-20T05:58:38;-0.76;81.84
65291;SHT30;51893;59.754;10.110;2023-12-20T06:01:07;-0.86;81.68
65291;SHT30;51893;59.754;10.110;2023-12-20T06:03:36;-0.99;81.84
65291;SHT30;51893;59.754;10.110;2023-12-20T06:06:06;-1.10;82.10
65291;SHT30;51893;59.754;10.110;2023-12-20T06:08:43;-1.14;82.20
65291;SHT30;51893;59.754;10.110;2023-12-20T06:11:11;-1.14;82.30
65291;SHT30;51893;59.754;10.110;2023-12-20T06:13:41;-1.11;82.21
65291;SHT30;51893;59.754;10.110;2023-12-20T06:16:10;-1.07;82.17
65291;SHT30;51893;59.754;10.110;2023-12-20T06:18:38;-1.09;82.09
65291;SHT30;51893;59.754;10.110;2023-12-20T06:21:06;-1.15;82.10
65291;SHT30;51893;59.754;10.110;2023-12-20T06:23:35;-1.16;82.19
65291;SHT30;51893;59.754;10.110;2023-12-20T06:26:04;-1.08;82.16
65291;SHT30;51893;59.754;10.110;2023-12-20T06:28:32;-1.02;82.10
65291;SHT30;51893;59.754;10.110;2023-12-20T06:31:00;-0.89;82.09
65291;SHT30;51893;59.754;10.110;2023-12-20T06:33:29;-0.79;81.95
65291;SHT30;51893;59.754;10.110;2023-12-20T06:35:58;-0.72;81.71
65291;SHT30;51893;59.754;10.110;2023-12-20T06:38:26;-0.76;81.54
65291;SHT30;51893;59.754;10.110;2023-12-20T06:40:54;-0.77;81.70
65291;SHT30;51893;59.754;10.110;2023-12-20T06:43:25;-0.71;81.68
65291;SHT30;51893;59.754;10.110;2023-12-20T06:46:12;-0.71;81.52
65291;SHT30;51893;59.754;10.110;2023-12-20T06:48:41;-0.72;81.57
65291;SHT30;51893;59.754;10.110;2023-12-20T06:51:14;-0.69;81.59
65291;SHT30;51893;59.754;10.110;2023-12-20T06:53:43;-0.63;81.56
65291;SHT30;51893;59.754;10.110;2023-12-20T06:56:11;-0.62;81.41
65291;SHT30;51893;59.754;10.110;2023-12-20T06:58:44;-0.63;81.40
65291;SHT30;51893;59.754;10.110;2023-12-20T07:01:14;-0.61;81.41
65291;SHT30;51893;59.754;10.110;2023-12-20T07:03:44;-0.56;81.31
65291;SHT30;51893;59.754;10.110;2023-12-20T07:06:12;-0.58;81.30
65291;SHT30;51893;59.754;10.110;2023-12-20T07:08:41;-0.59;81.29
65291;SHT30;51893;59.754;10.110;2023-12-20T07:11:10;-0.64;81.33
65291;SHT30;51893;59.754;10.110;2023-12-20T07:13:40;-0.68;81.45
65291;SHT30;51893;59.754;10.110;2023-12-20T07:16:08;-0.64;81.51
65291;SHT30;51893;59.754;10.110;2023-12-20T07:18:37;-0.65;81.50
65291;SHT30;51893;59.754;10.110;2023-12-20T07:21:05;-0.66;81.63
65291;SHT30;51893;59.754;10.110;2023-12-20T07:23:35;-0.62;81.70
65291;SHT30;51893;59.754;10.110;2023-12-20T07:26:03;-0.61;81.72
65291;SHT30;51893;59.754;10.110;2023-12-20T07:28:31;-0.58;81.79
65291;SHT30;51893;59.754;10.110;2023-12-20T07:31:00;-0.56;81.73
65291;SHT30;51893;59.754;10.110;2023-12-20T07:33:28;-0.51;81.67
65291;SHT30;51893;59.754;10.110;2023-12-20T07:36:05;-0.41;81.57
65291;SHT30;51893;59.754;10.110;2023-12-20T07:38:35;-0.36;81.32
65291;SHT30;51893;59.754;10.110;2023-12-20T07:41:03;-0.34;81.30
65291;SHT30;51893;59.754;10.110;2023-12-20T07:43:32;-0.28;81.29
65291;SHT30;51893;59.754;10.110;2023-12-20T07:46:05;-0.27;81.13
65291;SHT30;51893;59.754;10.110;2023-12-20T07:48:35;-0.23;81.09
65291;SHT30;51893;59.754;10.110;2023-12-20T07:51:04;-0.25;80.91
65291;SHT30;51893;59.754;10.110;2023-12-20T07:53:37;-0.25;80.95
65291;SHT30;51893;59.754;10.110;2023-12-20T07:56:15;-0.30;80.87
65291;SHT30;51893;59.754;10.110;2023-12-20T07:58:45;-0.38;81.01
65291;SHT30;51893;59.754;10.110;2023-12-20T08:01:20;-0.40;81.16
65291;SHT30;51893;59.754;10.110;2023-12-20T08:03:50;-0.43;81.15
65291;SHT30;51893;59.754;10.110;2023-12-20T08:06:21;-0.43;81.28
65291;SHT30;51893;59.754;10.110;2023-12-20T08:08:50;-0.35;81.23
65291;SHT30;51893;59.754;10.110;2023-12-20T08:11:28;-0.25;81.09
65291;SHT30;51893;59.754;10.110;2023-12-20T08:13:57;-0.28;80.95
65291;SHT30;51893;59.754;10.110;2023-12-20T08:16:26;-0.26;81.07
65291;SHT30;51893;59.754;10.110;2023-12-20T08:18:54;-0.23;80.90
65291;SHT30;51893;59.754;10.110;2023-12-20T08:21:23;-0.28;80.80
65291;SHT30;51893;59.754;10.110;2023-12-20T08:23:51;-0.35;80.84
65291;SHT30;51893;59.754;10.110;2023-12-20T08:26:20;-0.34;80.92
65291;SHT30;51893;59.754;10.110;2023-12-20T08:28:49;-0.37;80.91
65291;SHT30;51893;59.754;10.110;2023-12-20T08:31:18;-0.38;81.02
65291;SHT30;51893;59.754;10.110;2023-12-20T08:33:47;-0.46;81.05
65291;SHT30;51893;59.754;10.110;2023-12-20T08:36:19;-0.54;81.22
65291;SHT30;51893;59.754;10.110;2023-12-20T08:38:50;-0.63;81.52
65291;SHT30;51893;59.754;10.110;2023-12-20T08:41:27;-0.67;81.86
65291;SHT30;51893;59.754;10.110;2023-12-20T08:43:55;-0.73;82.18
65291;SHT30;51893;59.754;10.110;2023-12-20T08:46:23;-0.68;82.27
65291;SHT30;51893;59.754;10.110;2023-12-20T08:48:51;-0.72;82.33
65291;SHT30;51893;59.754;10.110;2023-12-20T08:51:21;-0.75;82.43
65291;SHT30;51893;59.754;10.110;2023-12-20T08:53:51;-0.72;82.49
65291;SHT30;51893;59.754;10.110;2023-12-20T08:56:19;-0.73;82.40
65291;SHT30;51893;59.754;10.110;2023-12-20T08:58:48;-0.74;82.40
65291;SHT30;51893;59.754;10.110;2023-12-20T09:01:16;-0.73;82.39
65291;SHT30;51893;59.754;10.110;2023-12-20T09:03:45;-0.69;82.30
65291;SHT30;51893;59.754;10.110;2023-12-20T09:06:14;-0.67;82.25
65291;SHT30;51893;59.754;10.110;2023-12-20T09:08:44;-0.70;82.17
65291;SHT30;51893;59.754;10.110;2023-12-20T09:11:15;-0.70;82.27
65291;SHT30;51893;59.754;10.110;2023-12-20T09:13:46;-0.66;82.24
65291;SHT30;51893;59.754;10.110;2023-12-20T09:16:14;-0.67;82.19
65291;SHT30;51893;59.754;10.110;2023-12-20T09:18:43;-0.68;82.19
65291;SHT30;51893;59.754;10.110;2023-12-20T09:21:11;-0.74;82.14
65291;SHT30;51893;59.754;10.110;2023-12-20T09:23:40;-0.82;82.30
65291;SHT30;51893;59.754;10.110;2023-12-20T09:26:09;-0.75;82.39
65291;SHT30;51893;59.754;10.110;2023-12-20T09:28:37;-0.70;82.28
65291;SHT30;51893;59.754;10.110;2023-12-20T09:31:06;-0.67;82.20
65291;SHT30;51893;59.754;10.110;2023-12-20T09:33:35;-0.67;82.13
65291;SHT30;51893;59.754;10.110;2023-12-20T09:36:03;-0.65;82.17
65291;SHT30;51893;59.754;10.110;2023-12-20T09:38:34;-0.59;82.15
65291;SHT30;51893;59.754;10.110;2023-12-20T09:41:04;-0.54;82.02
65291;SHT30;51893;59.754;10.110;2023-12-20T09:43:35;-0.52;81.92
65291;SHT30;51893;59.754;10.110;2023-12-20T09:46:06;-0.57;81.85
65291;SHT30;51893;59.754;10.110;2023-12-20T09:48:36;-0.63;81.92
65291;SHT30;51893;59.754;10.110;2023-12-20T09:51:04;-0.67;81.98
65291;SHT30;51893;59.754;10.110;2023-12-20T09:53:34;-0.66;82.06
65291;SHT30;51893;59.754;10.110;2023-12-20T09:56:05;-0.63;82.03
65291;SHT30;51893;59.754;10.110;2023-12-20T09:58:36;-0.60;81.93
65291;SHT30;51893;59.754;10.110;2023-12-20T10:01:08;-0.59;81.90
65291;SHT30;51893;59.754;10.110;2023-12-20T10:03:36;-0.58;81.91
65291;SHT30;51893;59.754;10.110;2023-12-20T10:06:10;-0.57;81.90
65291;SHT30;51893;59.754;10.110;2023-12-20T10:08:38;-0.56;81.80
65291;SHT30;51893;59.754;10.110;2023-12-20T10:11:07;-0.57;81.79
65291;SHT30;51893;59.754;10.110;2023-12-20T10:13:40;-0.56;81.68
65291;SHT30;51893;59.754;10.110;2023-12-20T10:16:12;-0.52;81.61
65291;SHT30;51893;59.754;10.110;2023-12-20T10:18:43;-0.45;81.55
65291;SHT30;51893;59.754;10.110;2023-12-20T10:21:13;-0.39;81.39
65291;SHT30;51893;59.754;10.110;2023-12-20T10:23:41;-0.38;81.23
65291;SHT30;51893;59.754;10.110;2023-12-20T10:26:09;-0.34;81.21
65291;SHT30;51893;59.754;10.110;2023-12-20T10:28:38;-0.31;81.07
65291;SHT30;51893;59.754;10.110;2023-12-20T10:31:07;-0.35;81.04
65291;SHT30;51893;59.754;10.110;2023-12-20T10:33:35;-0.31;81.11
65291;SHT30;51893;59.754;10.110;2023-12-20T10:36:03;-0.26;80.99
65291;SHT30;51893;59.754;10.110;2023-12-20T10:38:34;-0.24;80.92
65291;SHT30;51893;59.754;10.110;2023-12-20T10:41:08;-0.22;80.86
65291;SHT30;51893;59.754;10.110;2023-12-20T10:43:38;-0.20;80.72
65291;SHT30;51893;59.754;10.110;2023-12-20T10:46:10;-0.21;80.66
65291;SHT30;51893;59.754;10.110;2023-12-20T10:48:39;-0.25;80.52
65291;SHT30;51893;59.754;10.110;2023-12-20T10:51:08;-0.26;80.44
65291;SHT30;51893;59.754;10.110;2023-12-20T10:53:40;-0.25;80.42
65291;SHT30;51893;59.754;10.110;2023-12-20T10:56:10;-0.22;80.35
65291;SHT30;51893;59.754;10.110;2023-12-20T10:58:45;-0.23;80.16
65291;SHT30;51893;59.754;10.110;2023-12-20T11:01:16;-0.21;80.10
65291;SHT30;51893;59.754;10.110;2023-12-20T11:03:52;-0.26;79.94
65291;SHT30;51893;59.754;10.110;2023-12-20T11:09:36;-0.37;79.76
65291;SHT30;51893;59.754;10.110;2023-12-20T11:12:16;-0.45;79.80
65291;SHT30;51893;59.754;10.110;2023-12-20T11:14:54;-0.49;79.83
65291;SHT30;51893;59.754;10.110;2023-12-20T11:17:25;-0.51;79.79
65291;SHT30;51893;59.754;10.110;2023-12-20T11:22:26;-0.48;79.76
65291;SHT30;51893;59.754;10.110;2023-12-20T11:25:00;-0.50;79.66
65291;SHT30;51893;59.754;10.110;2023-12-20T11:27:39;-0.56;79.70
65291;SHT30;51893;59.754;10.110;2023-12-20T11:30:11;-0.57;79.70
65291;SHT30;51893;59.754;10.110;2023-12-20T11:32:45;-0.60;79.76
65291;SHT30;51893;59.754;10.110;2023-12-20T11:37:43;-0.58;79.84
65291;SHT30;51893;59.754;10.110;2023-12-20T11:40:16;-0.58;79.83
65291;SHT30;51893;59.754;10.110;2023-12-20T11:42:50;-0.60;79.92
65291;SHT30;51893;59.754;10.110;2023-12-20T11:45:21;-0.58;79.97
65291;SHT30;51893;59.754;10.110;2023-12-20T11:47:56;-0.58;79.92
65291;SHT30;51893;59.754;10.110;2023-12-20T11:50:25;-0.57;80.08
65291;SHT30;51893;59.754;10.110;2023-12-20T11:52:54;-0.57;80.10
65291;SHT30;51893;59.754;10.110;2023-12-20T11:55:25;-0.58;80.12
65291;SHT30;51893;59.754;10.110;2023-12-20T11:57:54;-0.61;80.18
65291;SHT30;51893;59.754;10.110;2023-12-20T12:00:24;-0.64;80.16
65291;SHT30;51893;59.754;10.110;2023-12-20T12:02:56;-0.69;80.29
65291;SHT30;51893;59.754;10.110;2023-12-20T12:05:27;-0.74;80.32
65291;SHT30;51893;59.754;10.110;2023-12-20T12:07:55;-0.74;80.48
65291;SHT30;51893;59.754;10.110;2023-12-20T12:10:26;-0.69;80.47
65291;SHT30;51893;59.754;10.110;2023-12-20T12:12:55;-0.67;80.32
65291;SHT30;51893;59.754;10.110;2023-12-20T12:15:23;-0.68;80.30
65291;SHT30;51893;59.754;10.110;2023-12-20T12:17:55;-0.68;80.32
65291;SHT30;51893;59.754;10.110;2023-12-20T12:20:24;-0.70;80.39
65291;SHT30;51893;59.754;10.110;2023-12-20T12:22:57;-0.69;80.50
65291;SHT30;51893;59.754;10.110;2023-12-20T12:25:32;-0.68;80.57
65291;SHT30;51893;59.754;10.110;2023-12-20T12:28:10;-0.61;80.54
65291;SHT30;51893;59.754;10.110;2023-12-20T12:30:41;-0.56;80.34
65291;SHT30;51893;59.754;10.110;2023-12-20T12:33:20;-0.55;80.23
65291;SHT30;51893;59.754;10.110;2023-12-20T12:35:48;-0.55;80.14
65291;SHT30;51893;59.754;10.110;2023-12-20T12:38:16;-0.55;80.20
65291;SHT30;51893;59.754;10.110;2023-12-20T12:40:49;-0.60;80.17
65291;SHT30;51893;59.754;10.110;2023-12-20T12:43:18;-0.60;80.28
65291;SHT30;51893;59.754;10.110;2023-12-20T12:45:46;-0.62;80.30
65291;SHT30;51893;59.754;10.110;2023-12-20T12:48:14;-0.62;80.28
65291;SHT30;51893;59.754;10.110;2023-12-20T12:50:43;-0.59;80.14
65291;SHT30;51893;59.754;10.110;2023-12-20T12:53:16;-0.57;80.27
65291;SHT30;51893;59.754;10.110;2023-12-20T12:55:44;-0.56;80.32
65291;SHT30;51893;59.754;10.110;2023-12-20T12:58:12;-0.51;80.59
65291;SHT30;51893;59.754;10.110;2023-12-20T13:00:40;-0.47;80.58
65291;SHT30;51893;59.754;10.110;2023-12-20T13:03:08;-0.44;80.33
65291;SHT30;51893;59.754;10.110;2023-12-20T13:05:36;-0.50;80.04
65291;SHT30;51893;59.754;10.110;2023-12-20T13:08:09;-0.50;79.90
65291;SHT30;51893;59.754;10.110;2023-12-20T13:10:40;-0.46;79.79
65291;SHT30;51893;59.754;10.110;2023-12-20T13:13:08;-0.51;79.60
65291;SHT30;51893;59.754;10.110;2023-12-20T13:15:36;-0.51;79.52
65291;SHT30;51893;59.754;10.110;2023-12-20T13:18:05;-0.53;79.40
65291;SHT30;51893;59.754;10.110;2023-12-20T13:20:35;-0.53;79.29
65291;SHT30;51893;59.754;10.110;2023-12-20T13:23:03;-0.54;79.32
65291;SHT30;51893;59.754;10.110;2023-12-20T13:25:31;-0.58;79.67
65291;SHT30;51893;59.754;10.110;2023-12-20T13:28:03;-0.64;80.12
65291;SHT30;51893;59.754;10.110;2023-12-20T13:30:31;-0.65;80.27
65291;SHT30;51893;59.754;10.110;2023-12-20T13:33:00;-0.62;80.28
65291;SHT30;51893;59.754;10.110;2023-12-20T13:35:28;-0.63;79.92
65291;SHT30;51893;59.754;10.110;2023-12-20T13:37:56;-0.62;79.91
65291;SHT30;51893;59.754;10.110;2023-12-20T13:40:25;-0.60;80.10
65291;SHT30;51893;59.754;10.110;2023-12-20T13:42:59;-0.60;79.86
65291;SHT30;51893;59.754;10.110;2023-12-20T13:45:29;-0.63;79.65
65291;SHT30;51893;59.754;10.110;2023-12-20T13:47:58;-0.68;79.46
65291;SHT30;51893;59.754;10.110;2023-12-20T13:50:29;-0.78;79.67
65291;SHT30;51893;59.754;10.110;2023-12-20T13:52:59;-0.75;80.13
65291;SHT30;51893;59.754;10.110;2023-12-20T13:55:28;-0.76;79.89
65291;SHT30;51893;59.754;10.110;2023-12-20T13:57:56;-0.82;79.87
65291;SHT30;51893;59.754;10.110;2023-12-20T14:00:26;-0.87;79.64
65291;SHT30;51893;59.754;10.110;2023-12-20T14:02:59;-0.94;79.56
65291;SHT30;51893;59.754;10.110;2023-12-20T14:05:27;-0.95;80.42
65291;SHT30;51893;59.754;10.110;2023-12-20T14:07:56;-0.97;80.78
65291;SHT30;51893;59.754;10.110;2023-12-20T14:10:28;-1.04;80.69
65291;SHT30;51893;59.754;10.110;2023-12-20T14:12:57;-1.01;80.59
65291;SHT30;51893;59.754;10.110;2023-12-20T14:15:27;-0.94;80.35
65291;SHT30;51893;59.754;10.110;2023-12-20T14:17:56;-0.90;80.16
65291;SHT30;51893;59.754;10.110;2023-12-20T14:20:25;-0.85;79.96
65291;SHT30;51893;59.754;10.110;2023-12-20T14:22:54;-0.84;79.85
65291;SHT30;51893;59.754;10.110;2023-12-20T14:25:22;-0.84;79.41
65291;SHT30;51893;59.754;10.110;2023-12-20T14:27:51;-1.02;79.41
65291;SHT30;51893;59.754;10.110;2023-12-20T14:30:20;-1.17;79.82
65291;SHT30;51893;59.754;10.110;2023-12-20T14:32:48;-1.26;79.70
65291;SHT30;51893;59.754;10.110;2023-12-20T14:35:16;-1.30;79.50
65291;SHT30;51893;59.754;10.110;2023-12-20T14:37:44;-1.46;79.17
65291;SHT30;51893;59.754;10.110;2023-12-20T14:40:15;-1.49;79.37
65291;SHT30;51893;59.754;10.110;2023-12-20T14:42:46;-1.46;79.24
65291;SHT30;51893;59.754;10.110;2023-12-20T14:45:14;-1.40;79.17
65291;SHT30;51893;59.754;10.110;2023-12-20T14:47:45;-1.37;79.86
65291;SHT30;51893;59.754;10.110;2023-12-20T14:50:24;-1.33;79.99
65291;SHT30;51893;59.754;10.110;2023-12-20T14:52:52;-1.32;79.90
65291;SHT30;51893;59.754;10.110;2023-12-20T14:55:24;-1.35;79.77
65291;SHT30;51893;59.754;10.110;2023-12-20T14:57:58;-1.37;79.81
65291;SHT30;51893;59.754;10.110;2023-12-20T15:00:27;-1.40;79.68
65291;SHT30;51893;59.754;10.110;2023-12-20T15:02:55;-1.49;79.47
65291;SHT30;51893;59.754;10.110;2023-12-20T15:05:26;-1.51;80.40
65291;SHT30;51893;59.754;10.110;2023-12-20T15:07:55;-1.46;81.05
65291;SHT30;51893;59.754;10.110;2023-12-20T15:10:23;-1.42;81.34
65291;SHT30;51893;59.754;10.110;2023-12-20T15:12:52;-1.36;81.38
65291;SHT30;51893;59.754;10.110;2023-12-20T15:15:21;-1.31;81.40
65291;SHT30;51893;59.754;10.110;2023-12-20T15:17:49;-1.28;81.40
65291;SHT30;51893;59.754;10.110;2023-12-20T15:20:19;-1.28;81.44
65291;SHT30;51893;59.754;10.110;2023-12-20T15:22:48;-1.29;81.48
65291;SHT30;51893;59.754;10.110;2023-12-20T15:25:17;-1.30;81.59
65291;SHT30;51893;59.754;10.110;2023-12-20T15:27:50;-1.29;81.53
65291;SHT30;51893;59.754;10.110;2023-12-20T15:30:22;-1.34;81.60
65291;SHT30;51893;59.754;10.110;2023-12-20T15:32:52;-1.40;81.62
65291;SHT30;51893;59.754;10.110;2023-12-20T15:35:21;-1.39;81.38
65291;SHT30;51893;59.754;10.110;2023-12-20T15:37:49;-1.29;80.94